Terminal Aerodrome Forecast
Issued by NWS Wakefield, VA

Home | Current Version | Previous Version | Text Only | Print | Product List | Glossary On
Versions: 1 2 3 4 5 6 7 8 9 10 11 12 13 14
000
FTUS41 KAKQ 232320
TAFSBY
TAF
KSBY 232320Z 2400/2424 17007KT P6SM SKC
     FM241000 VRB03KT 1SM BR BKN025
     FM241400 17004KT P6SM BKN030
     FM241500 18007KT P6SM SCT025
     FM241700 19011KT P6SM SCT035
     FM242100 16013G20KT P6SM SCT150=

USA.gov is the U.S. government's official web portal to all federal, state and local government web resources and services.